createdAt,value
2023-05-09T00:00:55.357Z,74.79
2023-05-09T00:03:34.697Z,74.76
2023-05-09T00:06:14.695Z,74.78
2023-05-09T00:08:54.062Z,74.79
2023-05-09T00:11:33.378Z,74.65
2023-05-09T00:14:19.702Z,74.83
2023-05-09T00:17:00.525Z,74.70
2023-05-09T00:19:40.351Z,74.83
2023-05-09T00:22:20.414Z,75.00
2023-05-09T00:25:00.183Z,74.64
2023-05-09T00:27:39.494Z,74.60
2023-05-09T00:30:24.402Z,74.78
2023-05-09T00:33:03.800Z,74.76
2023-05-09T00:35:43.140Z,74.68
2023-05-09T00:38:22.627Z,74.85
2023-05-09T00:41:02.001Z,75.19
2023-05-09T00:43:41.435Z,75.38
2023-05-09T00:46:26.134Z,75.67
2023-05-09T00:49:05.665Z,75.42
2023-05-09T00:51:46.654Z,75.46
2023-05-09T00:54:26.030Z,75.26
2023-05-09T00:57:05.426Z,75.48
2023-05-09T00:59:44.984Z,75.62
2023-05-09T01:02:30.374Z,75.54
2023-05-09T01:05:11.166Z,75.44
2023-05-09T01:07:57.597Z,75.48
2023-05-09T01:10:47.073Z,75.38
2023-05-09T01:13:39.307Z,75.28
2023-05-09T01:16:27.936Z,75.22
2023-05-09T01:19:44.829Z,75.36
2023-05-09T01:22:25.892Z,75.55
2023-05-09T01:25:41.254Z,75.56
2023-05-09T01:28:26.505Z,75.71
2023-05-09T01:31:13.125Z,75.85
2023-05-09T01:33:56.640Z,75.92
2023-05-09T01:36:40.369Z,76.01
2023-05-09T01:39:21.186Z,75.97
2023-05-09T01:42:04.099Z,75.91
2023-05-09T01:44:48.421Z,75.93
2023-05-09T01:47:34.523Z,75.92
2023-05-09T01:50:16.750Z,75.91
2023-05-09T01:53:00.219Z,75.73
2023-05-09T01:55:41.613Z,75.84
2023-05-09T01:58:23.304Z,75.70
2023-05-09T02:01:03.159Z,75.64
2023-05-09T02:03:51.875Z,75.74
2023-05-09T02:06:32.918Z,75.74
2023-05-09T02:09:12.805Z,75.68
2023-05-09T02:11:52.406Z,75.47
2023-05-09T02:14:31.865Z,75.50
2023-05-09T02:17:12.593Z,75.68
2023-05-09T02:19:57.215Z,75.50
2023-05-09T02:22:36.735Z,75.46
2023-05-09T02:25:18.274Z,75.57
2023-05-09T02:28:01.072Z,75.54
2023-05-09T02:30:45.866Z,75.30
2023-05-09T02:33:25.603Z,75.52
2023-05-09T02:36:10.874Z,75.69
2023-05-09T02:38:51.857Z,75.68
2023-05-09T02:41:34.733Z,75.94
2023-05-09T02:44:14.018Z,75.79
2023-05-09T02:46:53.324Z,75.78
2023-05-09T02:49:32.888Z,75.69
2023-05-09T02:52:17.615Z,75.81
2023-05-09T02:54:56.903Z,76.06
2023-05-09T02:57:36.176Z,76.19
2023-05-09T03:00:17.076Z,76.08
2023-05-09T03:02:57.253Z,76.11
2023-05-09T03:05:36.859Z,76.10
2023-05-09T03:08:21.197Z,76.02
2023-05-09T03:11:00.591Z,76.02
2023-05-09T03:13:39.863Z,76.13
2023-05-09T03:16:21.784Z,76.13
2023-05-09T03:19:01.192Z,76.08
2023-05-09T03:21:40.861Z,76.00
2023-05-09T03:24:25.338Z,76.21
2023-05-09T03:27:04.630Z,76.25
2023-05-09T03:29:44.018Z,76.24
2023-05-09T03:32:23.373Z,76.32
2023-05-09T03:35:02.667Z,76.21
2023-05-09T03:37:42.735Z,75.96
2023-05-09T03:40:27.078Z,75.79
2023-05-09T03:43:06.413Z,75.62
2023-05-09T03:45:45.791Z,75.37
2023-05-09T03:48:25.322Z,75.21
2023-05-09T03:51:04.709Z,75.14
2023-05-09T03:53:44.731Z,74.96
2023-05-09T03:56:29.127Z,75.18
2023-05-09T03:59:08.404Z,75.38
2023-05-09T04:01:47.886Z,75.36
2023-05-09T04:04:27.312Z,75.32
2023-05-09T04:07:06.685Z,75.63
2023-05-09T04:09:46.127Z,75.62
2023-05-09T04:12:30.502Z,76.13
2023-05-09T04:15:09.949Z,75.75
2023-05-09T04:17:49.258Z,76.22
2023-05-09T04:20:28.808Z,75.34
2023-05-09T04:23:08.132Z,75.16
2023-05-09T04:25:47.709Z,75.28
2023-05-09T04:28:32.781Z,75.70
2023-05-09T04:31:14.025Z,75.85
2023-05-09T04:33:53.447Z,75.93
2023-05-09T04:36:35.014Z,75.84
2023-05-09T04:39:14.427Z,75.62
2023-05-09T04:41:54.126Z,75.78
2023-05-09T04:44:38.673Z,75.75
2023-05-09T04:47:18.013Z,75.62
2023-05-09T04:49:57.297Z,75.54
2023-05-09T04:52:37.090Z,75.81
2023-05-09T04:55:17.260Z,75.95
2023-05-09T04:57:56.687Z,75.92
2023-05-09T05:00:41.279Z,76.03
2023-05-09T05:03:20.562Z,76.17
2023-05-09T05:05:59.892Z,76.08
2023-05-09T05:08:39.164Z,76.34
2023-05-09T05:11:19.151Z,76.49
2023-05-09T05:13:58.483Z,76.49
2023-05-09T05:16:42.870Z,76.52
2023-05-09T05:19:22.229Z,76.41
2023-05-09T05:22:01.674Z,76.15
2023-05-09T05:24:40.940Z,76.19
2023-05-09T05:27:20.314Z,76.40
2023-05-09T05:29:59.644Z,76.34
2023-05-09T05:32:44.887Z,76.17
2023-05-09T05:35:25.890Z,75.88
2023-05-09T05:38:05.268Z,75.95
2023-05-09T05:40:44.581Z,76.28
2023-05-09T05:43:23.936Z,76.68
2023-05-09T05:46:03.313Z,77.12
2023-05-09T05:48:47.772Z,76.51
2023-05-09T05:51:27.164Z,76.54
2023-05-09T05:54:06.861Z,76.43
2023-05-09T05:56:46.117Z,76.22
2023-05-09T05:59:25.397Z,75.88
2023-05-09T06:02:04.729Z,75.56
2023-05-09T06:04:49.410Z,75.02
2023-05-09T06:07:28.726Z,74.96
2023-05-09T06:10:08.043Z,74.84
2023-05-09T06:12:47.360Z,75.14
2023-05-09T06:15:26.671Z,74.03
2023-05-09T06:18:06.872Z,73.54
2023-05-09T06:20:51.250Z,73.20
2023-05-09T06:23:30.558Z,72.84
2023-05-09T06:26:10.273Z,73.24
2023-05-09T06:28:49.567Z,72.79
2023-05-09T06:31:29.281Z,72.24
2023-05-09T06:34:08.597Z,71.72
2023-05-09T06:36:53.053Z,72.05
2023-05-09T06:39:32.330Z,71.58
2023-05-09T06:42:11.796Z,71.54
2023-05-09T06:44:51.134Z,70.32
2023-05-09T06:47:30.494Z,69.00
2023-05-09T06:50:09.867Z,69.14
2023-05-09T06:52:54.261Z,69.36
2023-05-09T06:55:33.745Z,69.89
2023-05-09T06:58:13.312Z,69.09
2023-05-09T07:00:53.314Z,68.92
2023-05-09T07:03:32.596Z,68.06
2023-05-09T07:06:12.054Z,67.04
2023-05-09T07:08:56.428Z,66.97
2023-05-09T07:11:35.797Z,66.28
2023-05-09T07:14:15.103Z,65.50
2023-05-09T07:17:02.185Z,65.01
2023-05-09T07:19:49.531Z,65.32
2023-05-09T07:22:31.292Z,64.18
2023-05-09T07:25:17.290Z,64.21
2023-05-09T07:27:56.737Z,64.14
2023-05-09T07:30:36.079Z,63.54
2023-05-09T07:33:15.345Z,62.07
2023-05-09T07:35:54.741Z,62.20
2023-05-09T07:38:34.215Z,61.47
2023-05-09T07:41:18.590Z,60.59
2023-05-09T07:43:57.934Z,58.86
2023-05-09T07:46:38.536Z,57.74
2023-05-09T07:49:17.831Z,56.27
2023-05-09T07:51:57.169Z,56.92
2023-05-09T07:54:36.687Z,57.52
2023-05-09T07:57:21.077Z,57.37
2023-05-09T08:00:00.368Z,56.01
2023-05-09T08:02:39.684Z,54.79
2023-05-09T08:05:19.241Z,57.30
2023-05-09T08:07:58.540Z,57.11
2023-05-09T08:10:38.198Z,56.37
2023-05-09T08:13:23.484Z,55.59
2023-05-09T08:16:03.067Z,56.32
2023-05-09T08:18:42.386Z,55.89
2023-05-09T08:21:22.262Z,56.49
2023-05-09T08:24:03.195Z,56.17
2023-05-09T08:26:42.597Z,56.09
2023-05-09T08:29:27.105Z,55.39
2023-05-09T08:32:06.357Z,55.42
2023-05-09T08:34:45.688Z,54.68
2023-05-09T08:37:25.135Z,54.64
2023-05-09T08:40:05.458Z,55.28
2023-05-09T08:42:46.905Z,53.47
2023-05-09T08:45:36.701Z,53.21
2023-05-09T08:48:17.437Z,53.05
2023-05-09T08:50:57.196Z,52.98
2023-05-09T08:53:36.899Z,52.60
2023-05-09T08:56:16.643Z,52.38
2023-05-09T08:58:56.381Z,52.31
2023-05-09T09:01:42.030Z,52.63
2023-05-09T09:04:21.378Z,52.16
2023-05-09T09:07:01.746Z,51.38
2023-05-09T09:09:43.930Z,51.59
2023-05-09T09:12:25.116Z,49.30
2023-05-09T09:15:11.683Z,49.59
2023-05-09T09:18:04.293Z,48.19
2023-05-09T09:20:52.367Z,48.22
2023-05-09T09:23:33.744Z,47.63
2023-05-09T09:26:13.176Z,47.08
2023-05-09T09:28:52.459Z,46.97
2023-05-09T09:31:34.128Z,45.85
2023-05-09T09:34:18.508Z,45.07
2023-05-09T09:36:57.980Z,44.70
2023-05-09T09:39:37.256Z,44.16
2023-05-09T09:42:20.264Z,44.07
2023-05-09T09:45:04.265Z,42.94
2023-05-09T09:47:44.118Z,42.88
2023-05-09T09:50:29.202Z,43.40
2023-05-09T09:53:08.569Z,42.06
2023-05-09T09:55:57.544Z,42.43
2023-05-09T09:58:36.915Z,42.39
2023-05-09T10:01:17.876Z,42.36
2023-05-09T10:03:57.224Z,41.77
2023-05-09T10:06:41.617Z,41.36
2023-05-09T10:09:21.058Z,41.01
2023-05-09T10:12:03.010Z,40.86
2023-05-09T10:14:44.109Z,39.40
2023-05-09T10:17:24.614Z,39.90
2023-05-09T10:20:05.160Z,39.95
2023-05-09T10:22:50.064Z,39.23
2023-05-09T10:25:34.921Z,39.90
2023-05-09T10:28:19.336Z,38.51
2023-05-09T10:31:08.727Z,39.86
2023-05-09T10:33:53.445Z,40.04
2023-05-09T10:36:32.772Z,39.34
2023-05-09T10:39:17.763Z,38.79
2023-05-09T10:41:57.227Z,38.70
2023-05-09T10:44:36.737Z,38.42
2023-05-09T10:47:16.709Z,37.51
2023-05-09T10:49:57.193Z,36.57
2023-05-09T10:52:39.913Z,35.96
2023-05-09T10:55:24.343Z,35.69
2023-05-09T10:58:04.250Z,37.65
2023-05-09T11:00:48.827Z,37.62
2023-05-09T11:03:28.785Z,37.31
2023-05-09T11:06:08.186Z,36.66
2023-05-09T11:08:49.808Z,35.96
2023-05-09T11:11:37.034Z,35.04
2023-05-09T11:14:16.298Z,35.67
2023-05-09T11:17:05.401Z,34.45
2023-05-09T11:20:04.600Z,34.29
2023-05-09T11:22:48.673Z,33.69
2023-05-09T11:25:34.259Z,33.79
2023-05-09T11:28:32.764Z,33.76
2023-05-09T11:31:19.630Z,33.45
2023-05-09T11:34:01.421Z,34.34
2023-05-09T11:36:40.766Z,34.22
2023-05-09T11:39:20.055Z,33.81
2023-05-09T11:42:00.225Z,33.27
2023-05-09T11:44:44.643Z,33.22
2023-05-09T11:47:24.250Z,33.09
2023-05-09T11:50:03.581Z,33.07
2023-05-09T11:52:44.616Z,32.76
2023-05-09T11:55:26.546Z,31.35
2023-05-09T11:58:06.305Z,32.33
2023-05-09T12:00:53.627Z,32.16
2023-05-09T12:03:33.529Z,32.13
2023-05-09T12:06:13.832Z,31.90
2023-05-09T12:08:54.305Z,31.70
2023-05-09T12:11:33.622Z,31.94
2023-05-09T12:14:12.908Z,31.72
2023-05-09T12:16:57.833Z,31.59
2023-05-09T12:19:37.153Z,31.69
2023-05-09T12:22:16.424Z,32.02
2023-05-09T12:24:57.030Z,31.48
2023-05-09T12:27:37.313Z,29.68
2023-05-09T12:30:17.412Z,31.83
2023-05-09T12:33:02.823Z,32.23
2023-05-09T12:35:42.086Z,30.91
2023-05-09T12:38:22.432Z,30.54
2023-05-09T12:41:15.520Z,30.37
2023-05-09T12:44:10.609Z,31.55
2023-05-09T12:47:00.886Z,31.62
2023-05-09T12:49:45.343Z,30.62
2023-05-09T12:52:26.484Z,30.89
2023-05-09T12:55:14.086Z,30.50
2023-05-09T12:58:06.476Z,31.00
2023-05-09T13:00:50.757Z,31.31
2023-05-09T13:03:32.349Z,30.90
2023-05-09T13:06:20.337Z,31.03
2023-05-09T13:09:11.132Z,31.31
2023-05-09T13:11:50.414Z,30.81
2023-05-09T13:14:30.926Z,30.37
2023-05-09T13:17:10.314Z,29.78
2023-05-09T13:19:49.619Z,29.94
2023-05-09T13:22:33.971Z,29.78
2023-05-09T13:25:14.636Z,30.66
2023-05-09T13:27:53.894Z,31.19
2023-05-09T13:30:33.551Z,30.15
2023-05-09T13:33:24.597Z,30.34
2023-05-09T13:36:05.048Z,30.40
2023-05-09T13:38:50.234Z,29.66
2023-05-09T13:41:31.980Z,29.74
2023-05-09T13:44:11.647Z,29.94
2023-05-09T13:46:51.025Z,29.65
2023-05-09T13:49:30.289Z,30.17
2023-05-09T13:52:10.212Z,30.66
2023-05-09T13:54:54.583Z,29.77
2023-05-09T13:57:34.297Z,29.63
2023-05-09T14:00:15.954Z,28.86
2023-05-09T14:02:55.548Z,28.38
2023-05-09T14:05:34.888Z,28.77
2023-05-09T14:08:14.339Z,29.45
2023-05-09T14:10:58.714Z,29.43
2023-05-09T14:13:38.245Z,28.83
2023-05-09T14:16:17.617Z,28.71
2023-05-09T14:18:56.942Z,28.62
2023-05-09T14:21:36.219Z,29.12
2023-05-09T14:24:16.485Z,29.14
2023-05-09T14:27:00.953Z,29.13
2023-05-09T14:29:41.634Z,29.02
2023-05-09T14:32:20.902Z,28.28
2023-05-09T14:35:03.334Z,27.62
2023-05-09T14:37:42.709Z,28.05
2023-05-09T14:40:22.099Z,28.74
2023-05-09T14:43:07.241Z,28.34
2023-05-09T14:45:46.532Z,28.50
2023-05-09T14:48:25.817Z,28.49
2023-05-09T14:51:05.104Z,28.67
2023-05-09T14:53:46.194Z,29.04
2023-05-09T14:56:25.475Z,29.43
2023-05-09T14:59:10.650Z,29.04
2023-05-09T15:01:49.953Z,30.09
2023-05-09T15:04:31.871Z,29.60
2023-05-09T15:07:11.276Z,30.11
2023-05-09T15:09:50.769Z,30.00
2023-05-09T15:12:30.132Z,29.42
2023-05-09T15:15:26.454Z,29.20
2023-05-09T15:18:05.806Z,28.73
2023-05-09T15:20:46.426Z,29.05
2023-05-09T15:23:25.698Z,28.62
2023-05-09T15:26:05.120Z,28.32
2023-05-09T15:28:45.427Z,27.81
2023-05-09T15:31:29.896Z,28.60
2023-05-09T15:34:09.250Z,28.60
2023-05-09T15:36:48.575Z,28.34
2023-05-09T15:39:28.357Z,28.53
2023-05-09T15:42:10.081Z,28.24
2023-05-09T15:44:50.237Z,27.97
2023-05-09T15:47:34.632Z,28.58
2023-05-09T15:50:15.161Z,28.83
2023-05-09T15:52:54.598Z,28.83
2023-05-09T15:55:33.902Z,29.35
2023-05-09T15:58:15.169Z,29.68
2023-05-09T16:00:54.446Z,29.41
2023-05-09T16:03:39.223Z,30.06
2023-05-09T16:06:18.642Z,30.48
2023-05-09T16:08:58.387Z,30.28
2023-05-09T16:11:37.862Z,30.48
2023-05-09T16:14:17.685Z,30.53
2023-05-09T16:16:58.476Z,30.73
2023-05-09T16:19:43.652Z,32.49
2023-05-09T16:22:23.057Z,32.63
2023-05-09T16:25:02.405Z,32.43
2023-05-09T16:27:41.752Z,32.53
2023-05-09T16:30:25.594Z,33.16
2023-05-09T16:33:04.902Z,33.80
2023-05-09T16:35:49.277Z,34.13
2023-05-09T16:38:28.836Z,34.07
2023-05-09T16:41:08.091Z,34.24
2023-05-09T16:43:47.463Z,34.43
2023-05-09T16:46:26.927Z,34.54
2023-05-09T16:49:06.141Z,34.44
2023-05-09T16:51:50.898Z,35.22
2023-05-09T16:54:30.152Z,35.13
2023-05-09T16:57:09.618Z,34.94
2023-05-09T16:59:49.120Z,34.83
2023-05-09T17:02:28.538Z,35.10
2023-05-09T17:05:07.839Z,34.98
2023-05-09T17:07:52.226Z,35.71
2023-05-09T17:10:31.602Z,35.42
2023-05-09T17:13:13.212Z,36.82
2023-05-09T17:15:53.786Z,35.52
2023-05-09T17:18:37.391Z,36.11
2023-05-09T17:21:17.938Z,36.87
2023-05-09T17:24:03.244Z,36.87
2023-05-09T17:26:42.534Z,36.71
2023-05-09T17:29:21.866Z,37.03
2023-05-09T17:32:01.754Z,37.92
2023-05-09T17:34:41.836Z,37.85
2023-05-09T17:37:21.206Z,38.69
2023-05-09T17:40:06.374Z,40.50
2023-05-09T17:42:45.643Z,41.59
2023-05-09T17:45:25.086Z,43.40
2023-05-09T17:48:04.635Z,43.51
2023-05-09T17:50:44.775Z,44.07
2023-05-09T17:53:24.033Z,44.87
2023-05-09T17:56:08.411Z,44.45
2023-05-09T17:58:48.365Z,42.87
2023-05-09T18:01:28.168Z,44.54
2023-05-09T18:04:07.491Z,44.86
2023-05-09T18:06:46.775Z,43.80
2023-05-09T18:09:26.007Z,49.87
2023-05-09T18:12:11.057Z,54.22
2023-05-09T18:14:50.494Z,55.79
2023-05-09T18:17:29.813Z,57.19
2023-05-09T18:20:09.171Z,57.88
2023-05-09T18:22:48.462Z,56.54
2023-05-09T18:25:27.810Z,59.31
2023-05-09T18:28:12.458Z,61.11
2023-05-09T18:30:51.725Z,63.74
2023-05-09T18:33:33.047Z,63.82
2023-05-09T18:36:13.427Z,63.88
2023-05-09T18:38:52.688Z,64.86
2023-05-09T18:41:33.086Z,66.11
2023-05-09T18:44:17.536Z,67.41
2023-05-09T18:46:57.709Z,68.12
2023-05-09T18:49:37.035Z,68.41
2023-05-09T18:52:18.743Z,68.92
2023-05-09T18:54:57.993Z,67.82
2023-05-09T18:57:37.252Z,68.60
2023-05-09T19:00:22.562Z,68.63
2023-05-09T19:03:01.808Z,68.56
2023-05-09T19:05:41.182Z,67.62
2023-05-09T19:08:20.449Z,67.15
2023-05-09T19:11:03.234Z,67.99
2023-05-09T19:13:49.605Z,67.78
2023-05-09T19:16:34.117Z,68.43
2023-05-09T19:19:17.265Z,68.80
2023-05-09T19:21:56.552Z,69.14
2023-05-09T19:24:35.875Z,69.42
2023-05-09T19:27:15.145Z,69.68
2023-05-09T19:29:54.551Z,69.81
2023-05-09T19:32:39.003Z,69.94
2023-05-09T19:35:18.384Z,70.43
2023-05-09T19:37:57.703Z,70.14
2023-05-09T19:40:37.033Z,70.22
2023-05-09T19:43:16.303Z,70.85
2023-05-09T19:45:55.619Z,71.47
2023-05-09T19:48:40.076Z,72.01
2023-05-09T19:51:19.559Z,72.55
2023-05-09T19:53:58.833Z,72.47
2023-05-09T19:56:38.813Z,72.60
2023-05-09T19:59:18.046Z,71.80
2023-05-09T20:01:57.602Z,71.62
2023-05-09T20:04:50.673Z,72.13
2023-05-09T20:07:30.861Z,71.52
2023-05-09T20:10:10.360Z,72.69
2023-05-09T20:12:49.977Z,73.02
2023-05-09T20:15:29.288Z,73.16
2023-05-09T20:18:08.821Z,73.85
2023-05-09T20:20:53.276Z,74.03
2023-05-09T20:23:32.557Z,73.70
2023-05-09T20:26:11.815Z,73.68
2023-05-09T20:28:51.104Z,74.69
2023-05-09T20:31:30.400Z,74.58
2023-05-09T20:34:11.802Z,74.83
2023-05-09T20:36:57.757Z,74.67
2023-05-09T20:39:37.114Z,75.07
2023-05-09T20:42:16.397Z,75.16
2023-05-09T20:44:55.993Z,74.04
2023-05-09T20:47:35.283Z,74.03
2023-05-09T20:50:15.970Z,74.02
2023-05-09T20:53:00.453Z,74.59
2023-05-09T20:55:39.743Z,75.48
2023-05-09T20:58:19.939Z,75.41
2023-05-09T21:00:59.597Z,75.19
2023-05-09T21:03:39.122Z,75.33
2023-05-09T21:06:18.463Z,75.19
2023-05-09T21:09:02.879Z,75.18
2023-05-09T21:11:42.812Z,74.75
2023-05-09T21:14:25.567Z,75.43
2023-05-09T21:17:05.220Z,75.53
2023-05-09T21:19:44.510Z,75.48
2023-05-09T21:22:23.802Z,75.76
2023-05-09T21:25:08.198Z,75.28
2023-05-09T21:27:47.653Z,75.14
2023-05-09T21:30:27.136Z,74.79
2023-05-09T21:33:06.485Z,74.68
2023-05-09T21:35:45.761Z,75.14
2023-05-09T21:38:25.434Z,75.51
2023-05-09T21:41:09.924Z,74.77
2023-05-09T21:43:49.188Z,75.10
2023-05-09T21:46:28.465Z,75.02
2023-05-09T21:49:08.094Z,74.80
2023-05-09T21:51:47.360Z,74.64
2023-05-09T21:54:27.216Z,74.89
2023-05-09T21:57:11.575Z,74.93
2023-05-09T21:59:50.846Z,75.30
2023-05-09T22:02:30.257Z,74.68
2023-05-09T22:05:10.032Z,74.60
2023-05-09T22:07:49.441Z,74.59
2023-05-09T22:10:28.811Z,74.60
2023-05-09T22:13:13.267Z,74.64
2023-05-09T22:15:52.689Z,74.51
2023-05-09T22:18:32.037Z,74.34
2023-05-09T22:21:11.732Z,74.54
2023-05-09T22:23:51.149Z,74.57
2023-05-09T22:26:30.415Z,75.06
2023-05-09T22:29:17.694Z,75.22
2023-05-09T22:31:57.070Z,75.59
2023-05-09T22:34:36.476Z,75.95
2023-05-09T22:37:15.766Z,74.95
2023-05-09T22:39:55.088Z,74.60
2023-05-09T22:42:35.944Z,73.50
2023-05-09T22:45:20.682Z,72.70
2023-05-09T22:48:00.035Z,72.00
2023-05-09T22:50:39.612Z,72.85
2023-05-09T22:53:18.921Z,72.60
2023-05-09T22:55:59.074Z,72.63
2023-05-09T22:58:38.343Z,72.22
2023-05-09T23:01:22.774Z,72.53
2023-05-09T23:04:02.139Z,72.82
2023-05-09T23:06:41.426Z,73.34
2023-05-09T23:09:20.749Z,74.06
2023-05-09T23:12:00.741Z,73.30
2023-05-09T23:14:39.991Z,73.20
2023-05-09T23:17:24.419Z,72.86
2023-05-09T23:20:05.240Z,73.55
2023-05-09T23:22:44.585Z,74.22
2023-05-09T23:25:23.939Z,74.72
2023-05-09T23:28:03.446Z,74.76
2023-05-09T23:30:42.815Z,74.84
2023-05-09T23:33:27.259Z,75.22
2023-05-09T23:36:06.527Z,74.52
2023-05-09T23:38:46.029Z,74.94
2023-05-09T23:41:25.335Z,74.73
2023-05-09T23:44:04.662Z,74.63
2023-05-09T23:46:44.052Z,74.52
2023-05-09T23:49:28.558Z,74.90
2023-05-09T23:52:07.849Z,75.28
2023-05-09T23:54:47.686Z,75.25
2023-05-09T23:57:27.572Z,75.46
